Time;durP1;ratioP1;P1;durP2;ratioP2;P2;SDS_P1;SDS_P2;PMS_P1;PMS_P2;Temp;Humidity;BMP_temperature;BMP_pressure;BME280_temperature;BME280_humidity;BME280_pressure;Samples;Min_cycle;Max_cycle;Signal;HPM_P1;HPM_P2
2022/11/26 00:02:22;;;;;;;11.52;5.63;;;6.40;99.90;;;;;;5043602;28;20162;-39
2022/11/26 00:04:49;;;;;;;10.80;5.63;;;6.40;99.90;;;;;;5042758;28;20033;-39
2022/11/26 00:07:20;;;;;;;11.27;5.63;;;6.40;99.90;;;;;;5043786;28;20028;-41
2022/11/26 00:09:45;;;;;;;14.60;6.88;;;6.30;99.90;;;;;;5042700;28;20032;-40
2022/11/26 00:12:23;;;;;;;10.70;6.30;;;6.40;99.90;;;;;;5042828;28;20037;-40
2022/11/26 00:14:49;;;;;;;8.25;5.35;;;6.40;99.90;;;;;;5042715;28;20107;-40
2022/11/26 00:17:16;;;;;;;10.55;5.47;;;6.40;99.90;;;;;;5043523;28;20076;-40
2022/11/26 00:19:43;;;;;;;9.70;4.68;;;6.30;99.90;;;;;;5042822;28;20074;-39
2022/11/26 00:22:28;;;;;;;11.77;5.03;;;6.40;99.90;;;;;;5043277;28;20021;-40
2022/11/26 00:24:54;;;;;;;6.90;4.05;;;6.40;99.90;;;;;;5042699;28;20028;-39
2022/11/26 00:27:23;;;;;;;11.02;3.95;;;6.40;99.90;;;;;;5042595;28;20047;-40
2022/11/26 00:29:51;;;;;;;6.38;3.75;;;6.40;99.90;;;;;;5043118;28;20025;-40
2022/11/26 00:32:20;;;;;;;7.25;3.63;;;6.40;99.90;;;;;;5043491;28;20048;-40
2022/11/26 00:34:45;;;;;;;6.85;4.18;;;6.40;99.90;;;;;;5042390;28;20539;-41
2022/11/26 00:37:28;;;;;;;7.95;3.65;;;6.40;99.90;;;;;;5041521;28;20044;-40
2022/11/26 00:39:54;;;;;;;7.43;3.78;;;6.40;99.90;;;;;;5042317;28;20036;-41
2022/11/26 00:42:20;;;;;;;6.32;3.47;;;6.40;99.90;;;;;;5043011;28;20151;-40
2022/11/26 00:44:46;;;;;;;9.70;3.80;;;6.40;99.90;;;;;;5042461;28;20036;-39
2022/11/26 00:47:12;;;;;;;6.05;4.30;;;6.40;99.90;;;;;;5042762;28;20029;-40
2022/11/26 00:49:38;;;;;;;6.43;4.38;;;6.40;99.90;;;;;;5042166;28;20045;-38
2022/11/26 00:52:18;;;;;;;7.65;5.00;;;6.40;99.90;;;;;;5042034;28;20013;-39
2022/11/26 00:54:44;;;;;;;7.53;4.90;;;6.40;99.90;;;;;;5042233;28;20481;-40
2022/11/26 00:57:10;;;;;;;7.82;4.70;;;6.40;99.90;;;;;;5041974;28;20033;-40
2022/11/26 00:59:36;;;;;;;8.90;5.53;;;6.40;99.90;;;;;;5042206;28;20025;-40
2022/11/26 01:02:01;;;;;;;6.18;5.05;;;6.40;99.90;;;;;;5041287;28;20025;-40
2022/11/26 01:04:27;;;;;;;8.30;4.68;;;6.40;99.90;;;;;;5042198;28;20051;-40
2022/11/26 01:06:52;;;;;;;9.35;5.20;;;6.30;99.90;;;;;;5041511;28;20040;-39
2022/11/26 01:09:20;;;;;;;6.75;4.80;;;6.30;99.90;;;;;;5042295;28;20041;-37
2022/11/26 01:11:46;;;;;;;8.90;4.75;;;6.30;99.90;;;;;;5042014;28;20090;-41
2022/11/26 01:14:17;;;;;;;7.55;4.82;;;6.30;99.90;;;;;;5042215;28;20087;-40
2022/11/26 01:16:44;;;;;;;7.97;4.70;;;6.20;99.90;;;;;;5041576;28;20641;-41
2022/11/26 01:19:12;;;;;;;7.13;4.55;;;6.20;99.90;;;;;;5041770;28;20048;-39
2022/11/26 01:21:38;;;;;;;5.93;4.22;;;6.20;99.90;;;;;;5042306;28;20025;-40
2022/11/26 01:24:04;;;;;;;6.50;4.38;;;6.10;99.90;;;;;;5041965;28;20036;-40
2022/11/26 01:26:37;;;;;;;7.85;4.47;;;6.10;99.90;;;;;;5041899;28;20029;-41
2022/11/26 01:29:02;;;;;;;;;;;6.10;99.90;;;;;;5041832;28;20184;-41
2022/11/26 01:31:28;;;;;;;8.63;4.38;;;6.00;99.90;;;;;;5042004;28;20584;-37
2022/11/26 01:33:54;;;;;;;9.50;4.88;;;6.00;99.90;;;;;;5041189;28;20028;-40
2022/11/26 01:36:29;;;;;;;9.90;4.68;;;6.00;99.90;;;;;;5041092;28;20062;-39
2022/11/26 01:38:57;;;;;;;10.13;5.53;;;5.90;99.90;;;;;;5041959;28;20032;-41
2022/11/26 01:41:44;;;;;;;10.18;5.10;;;5.90;99.90;;;;;;5042007;28;20055;-41
2022/11/26 01:44:30;;;;;;;9.48;5.60;;;5.90;99.90;;;;;;5041101;28;20048;-45
2022/11/26 01:46:57;;;;;;;10.60;5.50;;;5.90;99.90;;;;;;5041916;28;20052;-42
2022/11/26 01:49:24;;;;;;;9.32;5.05;;;5.90;99.90;;;;;;5040794;28;20147;-40
2022/11/26 01:52:01;;;;;;;13.32;6.25;;;5.90;99.90;;;;;;5041127;28;20021;-41
2022/11/26 01:54:27;;;;;;;9.57;5.78;;;5.90;99.90;;;;;;5041893;28;20143;-40
2022/11/26 01:56:55;;;;;;;14.40;5.90;;;5.80;99.90;;;;;;5041565;28;20720;-37
2022/11/26 01:59:27;;;;;;;17.08;6.20;;;5.80;99.90;;;;;;5041135;28;20025;-40
2022/11/26 02:01:55;;;;;;;12.40;6.38;;;5.80;99.90;;;;;;5041294;28;20025;-40
2022/11/26 02:04:23;;;;;;;9.98;6.35;;;5.80;99.90;;;;;;5041536;28;20419;-39
2022/11/26 02:06:50;;;;;;;11.90;5.70;;;5.80;99.90;;;;;;5041218;28;20432;-39
2022/11/26 02:09:21;;;;;;;8.18;5.57;;;5.80;99.90;;;;;;5041325;28;20473;-40
2022/11/26 02:11:47;;;;;;;9.30;5.70;;;5.80;99.90;;;;;;5041176;28;20056;-40
2022/11/26 02:14:35;;;;;;;11.00;5.10;;;5.70;99.90;;;;;;5041093;28;20029;-41
2022/11/26 02:17:09;;;;;;;6.75;5.22;;;5.70;99.90;;;;;;5041953;28;20021;-39
2022/11/26 02:20:06;;;;;;;7.30;5.18;;;5.70;99.90;;;;;;5037827;28;20766;-39
2022/11/26 02:22:49;;;;;;;8.93;5.20;;;5.60;99.90;;;;;;5041490;28;20488;-40
2022/11/26 02:25:56;;;;;;;8.45;5.15;;;5.60;99.90;;;;;;5030267;28;20049;-41
2022/11/26 02:28:40;;;;;;;8.88;5.70;;;5.60;99.90;;;;;;5040778;28;20526;-40
2022/11/26 02:31:29;;;;;;;10.23;5.22;;;5.60;99.90;;;;;;5041100;28;20033;-40
2022/11/26 02:34:25;;;;;;;8.23;5.47;;;5.50;99.90;;;;;;5041405;28;20021;-41
2022/11/26 02:36:58;;;;;;;8.07;5.50;;;5.60;99.90;;;;;;5020644;28;20081;-40
2022/11/26 02:39:27;;;;;;;11.80;5.75;;;5.60;99.90;;;;;;5035941;28;20120;-40
2022/11/26 02:41:55;;;;;;;9.35;5.55;;;5.70;99.90;;;;;;5041312;28;20021;-41
2022/11/26 02:44:40;;;;;;;9.25;5.43;;;5.70;99.90;;;;;;5040672;28;20041;-40
2022/11/26 02:47:11;;;;;;;10.30;5.85;;;5.70;99.90;;;;;;5040557;28;20040;-39
2022/11/26 02:49:39;;;;;;;10.77;5.72;;;5.70;99.90;;;;;;5040788;28;20029;-41
2022/11/26 02:52:06;;;;;;;9.90;5.72;;;5.70;99.90;;;;;;5041167;28;20029;-41
2022/11/26 02:54:33;;;;;;;8.05;5.53;;;5.80;99.90;;;;;;5041125;28;20025;-41
2022/11/26 02:57:03;;;;;;;8.80;5.60;;;5.80;99.90;;;;;;5041306;28;20036;-39
2022/11/26 02:59:29;;;;;;;9.15;5.40;;;5.80;99.90;;;;;;5041020;28;20029;-38
2022/11/26 03:02:10;;;;;;;10.75;5.65;;;5.80;99.90;;;;;;5043776;28;20037;-39
2022/11/26 03:04:39;;;;;;;8.52;5.40;;;5.80;99.90;;;;;;5045215;28;20115;-38
2022/11/26 03:07:07;;;;;;;8.55;5.38;;;5.70;99.90;;;;;;5044905;28;20884;-39
2022/11/26 03:10:02;;;;;;;6.57;4.78;;;5.70;99.90;;;;;;5044142;28;20031;-40
2022/11/26 03:12:29;;;;;;;9.45;5.03;;;5.70;99.90;;;;;;5039764;28;20816;-40
2022/11/26 03:14:54;;;;;;;8.73;5.30;;;5.80;99.90;;;;;;5043219;28;20199;-39
2022/11/26 03:17:20;;;;;;;8.75;5.18;;;5.70;99.90;;;;;;5043713;28;20040;-40
2022/11/26 03:19:46;;;;;;;9.18;5.20;;;5.70;99.90;;;;;;5043985;28;20017;-40
2022/11/26 03:22:13;;;;;;;9.52;5.47;;;5.70;99.90;;;;;;5043806;28;20029;-38
2022/11/26 03:24:38;;;;;;;9.27;5.80;;;5.70;99.90;;;;;;5043601;28;20362;-41
2022/11/26 03:27:04;;;;;;;9.88;5.28;;;5.70;99.90;;;;;;5043910;28;20070;-41
2022/11/26 03:29:30;;;;;;;12.82;5.57;;;5.70;99.90;;;;;;5044295;28;20095;-39
2022/11/26 03:31:55;;;;;;;9.65;5.63;;;5.70;99.90;;;;;;5044390;28;20773;-39
2022/11/26 03:34:21;;;;;;;8.43;5.70;;;5.70;99.90;;;;;;5044357;28;20043;-38
2022/11/26 03:36:50;;;;;;;12.10;5.82;;;5.70;99.90;;;;;;5042914;28;20119;-41
2022/11/26 03:39:16;;;;;;;11.57;5.90;;;5.70;99.90;;;;;;5043329;28;20021;-39
2022/11/26 03:41:43;;;;;;;9.05;5.60;;;5.70;99.90;;;;;;5043420;28;20106;-41
2022/11/26 03:44:09;;;;;;;9.35;5.78;;;5.70;99.90;;;;;;5043200;28;20036;-41
2022/11/26 03:46:35;;;;;;;9.93;5.45;;;5.70;99.90;;;;;;5043009;28;20029;-39
2022/11/26 03:49:00;;;;;;;8.43;6.00;;;5.70;99.90;;;;;;5043904;28;20099;-41
2022/11/26 03:51:26;;;;;;;9.60;5.82;;;5.70;99.90;;;;;;5042606;28;20037;-38
2022/11/26 03:53:51;;;;;;;11.80;6.15;;;5.60;99.90;;;;;;5042869;28;20471;-41
2022/11/26 03:56:17;;;;;;;9.13;5.47;;;5.70;99.90;;;;;;5042995;28;20025;-40
2022/11/26 03:58:42;;;;;;;8.75;6.32;;;5.60;99.90;;;;;;5043593;28;20036;-40
2022/11/26 04:01:10;;;;;;;8.95;5.68;;;5.60;99.90;;;;;;5043022;28;20036;-41
2022/11/26 04:03:36;;;;;;;9.35;5.88;;;5.60;99.90;;;;;;5043261;28;20107;-40
2022/11/26 04:06:02;;;;;;;8.88;5.72;;;5.60;99.90;;;;;;5043252;28;20025;-39
2022/11/26 04:08:27;;;;;;;9.90;5.85;;;5.50;99.90;;;;;;5043438;28;20028;-41
2022/11/26 04:10:53;;;;;;;9.95;6.40;;;5.50;99.90;;;;;;5042744;28;20033;-40
2022/11/26 04:13:18;;;;;;;12.45;6.22;;;5.40;99.90;;;;;;5041912;28;20021;-40
2022/11/26 04:15:44;;;;;;;11.52;6.07;;;5.40;99.90;;;;;;5043744;28;20047;-40
2022/11/26 04:18:10;;;;;;;12.75;6.45;;;5.40;99.90;;;;;;5042941;28;20499;-41
2022/11/26 04:20:35;;;;;;;12.50;6.32;;;5.30;99.90;;;;;;5043351;28;20037;-40
2022/11/26 04:23:01;;;;;;;9.13;5.93;;;5.30;99.90;;;;;;5042105;28;20024;-39
2022/11/26 04:25:26;;;;;;;10.48;6.32;;;5.30;99.90;;;;;;5036480;28;20763;-39
2022/11/26 04:27:52;;;;;;;11.73;6.10;;;5.30;99.90;;;;;;5036324;28;20021;-40
2022/11/26 04:30:17;;;;;;;11.23;6.18;;;5.30;99.90;;;;;;5043338;28;20543;-40
2022/11/26 04:32:43;;;;;;;13.32;6.78;;;5.30;99.90;;;;;;5042169;28;20496;-40
2022/11/26 04:35:09;;;;;;;12.65;6.68;;;5.20;99.90;;;;;;5042048;28;20028;-41
2022/11/26 04:37:35;;;;;;;12.82;6.32;;;5.20;99.90;;;;;;5042927;28;20042;-39
2022/11/26 04:40:00;;;;;;;17.20;6.72;;;5.20;99.90;;;;;;5042370;28;20499;-39
2022/11/26 04:42:26;;;;;;;11.25;6.28;;;5.20;99.90;;;;;;5042745;28;20021;-40
2022/11/26 04:44:52;;;;;;;12.65;6.88;;;5.20;99.90;;;;;;5043453;28;20114;-41
2022/11/26 04:47:17;;;;;;;12.13;6.40;;;5.20;99.90;;;;;;5042471;28;20044;-41
2022/11/26 04:49:43;;;;;;;14.60;6.43;;;5.20;99.90;;;;;;5042242;28;20476;-41
2022/11/26 04:52:09;;;;;;;15.63;7.15;;;5.20;99.90;;;;;;5042619;28;20049;-40
2022/11/26 04:54:34;;;;;;;13.50;6.70;;;5.20;99.90;;;;;;5042645;28;20513;-41
2022/11/26 04:57:00;;;;;;;14.85;7.25;;;5.20;99.90;;;;;;5042938;28;20025;-41
2022/11/26 04:59:25;;;;;;;12.68;6.57;;;5.20;99.90;;;;;;5042760;28;20033;-40
2022/11/26 05:01:51;;;;;;;19.17;7.93;;;5.20;99.90;;;;;;5041865;28;20021;-41
2022/11/26 05:04:16;;;;;;;17.02;6.80;;;5.20;99.90;;;;;;5041316;28;20029;-40
2022/11/26 05:06:42;;;;;;;18.40;6.53;;;5.20;99.90;;;;;;5042442;28;20020;-39
2022/11/26 05:09:08;;;;;;;11.45;6.70;;;5.20;99.90;;;;;;5040920;28;20464;-40
2022/11/26 05:11:33;;;;;;;15.55;6.70;;;5.20;99.90;;;;;;5042735;28;20024;-41
2022/11/26 05:13:59;;;;;;;18.05;6.40;;;5.20;99.90;;;;;;5041562;28;20115;-38
2022/11/26 05:16:24;;;;;;;12.18;6.40;;;5.20;99.90;;;;;;5042085;28;20028;-38
2022/11/26 05:18:50;;;;;;;11.10;6.05;;;5.10;99.90;;;;;;5042236;28;20033;-41
2022/11/26 05:21:15;;;;;;;14.13;6.57;;;5.10;99.90;;;;;;5041445;28;20025;-38
2022/11/26 05:23:41;;;;;;;9.93;6.53;;;5.10;99.90;;;;;;5041469;28;20032;-41
2022/11/26 05:26:06;;;;;;;11.52;6.85;;;5.10;99.90;;;;;;5042381;28;20037;-40
2022/11/26 05:28:32;;;;;;;11.13;7.13;;;5.00;99.90;;;;;;5041617;28;20777;-41
2022/11/26 05:30:59;;;;;;;11.05;7.32;;;5.00;99.90;;;;;;5041556;28;20748;-40
2022/11/26 05:33:25;;;;;;;9.85;7.00;;;5.00;99.90;;;;;;5041920;28;20021;-38
2022/11/26 05:35:51;;;;;;;10.43;7.57;;;5.00;99.90;;;;;;5040448;28;20491;-40
2022/11/26 05:38:16;;;;;;;9.20;7.55;;;4.90;99.90;;;;;;5041915;28;20032;-41
2022/11/26 05:40:42;;;;;;;9.10;7.38;;;4.90;99.90;;;;;;5041173;28;20108;-38
2022/11/26 05:43:08;;;;;;;9.65;7.22;;;4.90;99.90;;;;;;5041628;28;20029;-41
2022/11/26 05:45:33;;;;;;;11.52;7.25;;;4.90;99.90;;;;;;5041148;28;20488;-40
2022/11/26 05:47:59;;;;;;;9.88;6.80;;;4.90;99.90;;;;;;5042075;28;20033;-38
2022/11/26 05:50:24;;;;;;;11.65;7.20;;;4.90;99.90;;;;;;5041094;28;20036;-40
2022/11/26 05:52:50;;;;;;;9.32;6.78;;;4.80;99.90;;;;;;5040982;28;20047;-40
2022/11/26 05:55:15;;;;;;;11.77;7.18;;;4.80;99.90;;;;;;5041201;28;20039;-39
2022/11/26 05:57:41;;;;;;;12.43;6.80;;;4.80;99.90;;;;;;5041163;28;20028;-39
2022/11/26 06:00:09;;;;;;;11.30;6.63;;;4.80;99.90;;;;;;5040845;28;20067;-41
2022/11/26 06:02:38;;;;;;;9.07;6.55;;;4.80;99.90;;;;;;5041712;28;20025;-42
2022/11/26 06:05:04;;;;;;;10.82;6.53;;;4.70;99.90;;;;;;5040622;28;20128;-41
2022/11/26 06:07:29;;;;;;;11.18;7.45;;;4.70;99.90;;;;;;5041335;28;20035;-40
2022/11/26 06:09:55;;;;;;;9.52;6.65;;;4.70;99.90;;;;;;5041916;28;20032;-41
2022/11/26 06:12:20;;;;;;;8.60;6.28;;;4.60;99.90;;;;;;5040773;28;20061;-40
2022/11/26 06:14:46;;;;;;;9.35;6.20;;;4.60;99.90;;;;;;5040987;28;20032;-39
2022/11/26 06:17:12;;;;;;;9.70;6.72;;;4.60;99.90;;;;;;5040754;28;20131;-39
2022/11/26 06:19:38;;;;;;;10.32;6.55;;;4.60;99.90;;;;;;5041386;28;20082;-38
2022/11/26 06:22:03;;;;;;;11.00;6.13;;;4.60;99.90;;;;;;5041442;28;20029;-40
2022/11/26 06:24:29;;;;;;;13.13;6.53;;;4.60;99.90;;;;;;5041036;28;20044;-38
2022/11/26 06:26:54;;;;;;;8.05;5.88;;;4.70;99.90;;;;;;5041513;28;20028;-40
2022/11/26 06:29:20;;;;;;;12.60;6.82;;;4.70;99.90;;;;;;5041506;28;20033;-41
2022/11/26 06:31:46;;;;;;;9.70;6.10;;;4.70;99.90;;;;;;5040723;28;20021;-42
2022/11/26 06:34:13;;;;;;;10.20;6.32;;;4.80;99.90;;;;;;5041046;28;20032;-41
2022/11/26 06:36:38;;;;;;;13.05;6.22;;;4.80;99.90;;;;;;5044671;28;20148;-41
2022/11/26 06:39:04;;;;;;;11.60;6.78;;;4.80;99.90;;;;;;5044851;28;20106;-41
2022/11/26 06:41:29;;;;;;;10.88;6.43;;;4.90;99.90;;;;;;5044771;28;20527;-40
2022/11/26 06:43:55;;;;;;;12.00;6.07;;;4.80;99.90;;;;;;5045300;28;20436;-40
2022/11/26 06:46:20;;;;;;;11.13;5.93;;;4.90;99.90;;;;;;5044258;28;20426;-41
2022/11/26 06:48:46;;;;;;;10.32;5.85;;;4.90;99.90;;;;;;5044702;28;20070;-41
2022/11/26 06:51:14;;;;;;;10.77;5.70;;;4.90;99.90;;;;;;5045270;28;20044;-41
2022/11/26 06:53:39;;;;;;;10.68;5.60;;;4.90;99.90;;;;;;5041141;28;20056;-41
2022/11/26 06:56:09;;;;;;;10.77;5.90;;;5.00;99.90;;;;;;5044423;28;20116;-39
2022/11/26 06:58:35;;;;;;;10.43;6.72;;;5.00;99.90;;;;;;5044166;28;20103;-40
2022/11/26 07:01:09;;;;;;;11.18;6.57;;;5.00;99.90;;;;;;5044332;28;20770;-41
2022/11/26 07:03:35;;;;;;;12.77;6.60;;;5.00;99.90;;;;;;5043646;28;20032;-41
2022/11/26 07:06:00;;;;;;;9.95;6.25;;;5.00;99.90;;;;;;5044492;28;20033;-41
2022/11/26 07:08:26;;;;;;;13.77;6.80;;;5.00;99.90;;;;;;5043768;28;20110;-40
2022/11/26 07:10:52;;;;;;;10.85;6.78;;;4.90;99.90;;;;;;5044083;28;20033;-40
2022/11/26 07:13:17;;;;;;;12.52;6.35;;;4.90;99.90;;;;;;5043549;28;20021;-40
2022/11/26 07:15:43;;;;;;;11.00;6.85;;;4.90;99.90;;;;;;5044038;28;20028;-40
2022/11/26 07:18:08;;;;;;;12.50;7.30;;;4.90;99.90;;;;;;5044212;28;20025;-42
2022/11/26 07:20:35;;;;;;;13.93;6.82;;;4.90;99.90;;;;;;5043435;28;20033;-41
2022/11/26 07:23:01;;;;;;;14.55;7.82;;;4.90;99.90;;;;;;5043826;28;20136;-41
2022/11/26 07:25:27;;;;;;;15.40;7.63;;;4.90;99.90;;;;;;5044543;28;20078;-41
2022/11/26 07:27:53;;;;;;;12.98;7.90;;;4.90;99.90;;;;;;5043391;28;20021;-40
2022/11/26 07:30:18;;;;;;;18.65;9.20;;;4.90;99.90;;;;;;5032934;28;20571;-41
2022/11/26 07:32:44;;;;;;;18.75;9.95;;;4.90;99.90;;;;;;5043691;28;20032;-40
2022/11/26 07:35:09;;;;;;;18.63;10.20;;;4.90;99.90;;;;;;5043318;28;20076;-42
2022/11/26 07:37:35;;;;;;;14.52;10.52;;;4.90;99.90;;;;;;5043718;28;20040;-41
2022/11/26 07:40:01;;;;;;;18.10;11.52;;;4.90;99.90;;;;;;5044126;28;20119;-40
2022/11/26 07:42:29;;;;;;;17.77;11.82;;;4.90;99.90;;;;;;5043669;28;20041;-41
2022/11/26 07:44:55;;;;;;;16.50;11.98;;;4.90;99.90;;;;;;5042871;28;20044;-41
2022/11/26 07:47:20;;;;;;;17.13;11.82;;;4.90;99.90;;;;;;5042503;28;20032;-41
2022/11/26 07:49:46;;;;;;;20.42;12.40;;;4.90;99.90;;;;;;5043583;28;20041;-41
2022/11/26 07:52:11;;;;;;;16.90;11.50;;;4.90;99.90;;;;;;5043453;28;20017;-41
2022/11/26 07:54:37;;;;;;;16.38;11.25;;;4.90;99.90;;;;;;5043354;28;20821;-41
2022/11/26 07:57:03;;;;;;;19.88;11.65;;;4.90;99.90;;;;;;5044020;28;20033;-39
2022/11/26 07:59:28;;;;;;;15.45;10.63;;;4.90;99.90;;;;;;5043781;28;20473;-40
2022/11/26 08:01:54;;;;;;;18.15;9.88;;;4.90;99.90;;;;;;5043770;28;20083;-41
2022/11/26 08:04:19;;;;;;;17.17;10.35;;;4.90;99.90;;;;;;5043203;28;20045;-40
2022/11/26 08:06:45;;;;;;;16.10;10.60;;;4.90;99.90;;;;;;5043238;28;20686;-40
2022/11/26 08:09:10;;;;;;;16.40;10.45;;;4.90;99.90;;;;;;5043297;28;20057;-39
2022/11/26 08:11:36;;;;;;;15.82;10.45;;;4.90;99.90;;;;;;5043244;28;20056;-39
2022/11/26 08:14:09;;;;;;;15.40;10.15;;;5.00;99.90;;;;;;5043500;28;20055;-41
2022/11/26 08:16:34;;;;;;;15.02;9.95;;;5.00;99.90;;;;;;5043231;28;20033;-39
2022/11/26 08:19:04;;;;;;;20.20;13.10;;;5.00;99.90;;;;;;5042911;28;20056;-41
2022/11/26 08:21:29;;;;;;;20.00;14.20;;;5.00;99.90;;;;;;5042033;28;20029;-41
2022/11/26 08:23:55;;;;;;;21.30;14.63;;;5.00;99.90;;;;;;5042872;28;20033;-40
2022/11/26 08:26:21;;;;;;;18.60;14.13;;;5.10;99.90;;;;;;5042431;28;20041;-41
2022/11/26 08:28:46;;;;;;;19.80;13.57;;;5.10;99.90;;;;;;5043285;28;20388;-39
2022/11/26 08:31:14;;;;;;;20.42;13.15;;;5.10;99.90;;;;;;5042235;28;20031;-39
2022/11/26 08:33:40;;;;;;;18.98;12.40;;;5.20;99.90;;;;;;5042899;28;20444;-42
2022/11/26 08:36:06;;;;;;;15.80;10.88;;;5.20;99.90;;;;;;5043031;28;20555;-41
2022/11/26 08:38:35;;;;;;;14.30;9.95;;;5.20;99.90;;;;;;5043641;28;20025;-40
2022/11/26 08:41:11;;;;;;;14.27;9.63;;;5.30;99.90;;;;;;5043106;28;20090;-41
2022/11/26 08:43:37;;;;;;;15.10;8.63;;;5.40;99.90;;;;;;5042526;28;20025;-39
2022/11/26 08:46:03;;;;;;;13.90;7.95;;;5.50;99.90;;;;;;5042188;28;20032;-41
2022/11/26 08:48:30;;;;;;;13.95;7.07;;;5.60;99.90;;;;;;5043021;28;20095;-38
2022/11/26 08:51:01;;;;;;;13.07;7.82;;;5.60;99.90;;;;;;5042539;28;20028;-40
2022/11/26 08:53:28;;;;;;;11.82;6.45;;;5.70;99.90;;;;;;5042351;28;20058;-42
2022/11/26 08:56:01;;;;;;;14.15;6.40;;;5.90;99.90;;;;;;5042088;28;20465;-40
2022/11/26 08:58:27;;;;;;;28.65;18.52;;;6.00;99.90;;;;;;5041659;28;20472;-40
2022/11/26 09:00:53;;;;;;;30.17;17.77;;;6.00;99.90;;;;;;5042131;28;20029;-40
2022/11/26 09:03:19;;;;;;;28.15;16.73;;;6.10;99.90;;;;;;5042074;28;20448;-38
2022/11/26 09:05:44;;;;;;;21.05;13.52;;;6.20;99.90;;;;;;5041870;28;20548;-40
2022/11/26 09:08:10;;;;;;;20.08;11.75;;;6.20;99.90;;;;;;5041625;28;20078;-41
2022/11/26 09:10:35;;;;;;;17.48;10.50;;;6.30;99.90;;;;;;5042589;28;20029;-40
2022/11/26 09:13:01;;;;;;;16.73;9.77;;;6.40;99.90;;;;;;5041959;28;20477;-41
2022/11/26 09:15:26;;;;;;;13.27;8.75;;;6.40;99.90;;;;;;5042570;28;20035;-37
2022/11/26 09:17:52;;;;;;;13.23;7.43;;;6.40;99.90;;;;;;5042558;28;20028;-39
2022/11/26 09:20:18;;;;;;;11.20;7.22;;;6.50;99.90;;;;;;5041640;28;20035;-40
2022/11/26 09:22:43;;;;;;;13.60;6.65;;;6.50;99.90;;;;;;5041934;28;20033;-41
2022/11/26 09:25:09;;;;;;;16.17;6.78;;;6.60;99.90;;;;;;5042331;28;20048;-39
2022/11/26 09:27:37;;;;;;;12.38;7.00;;;6.60;99.90;;;;;;5041556;28;20517;-40
2022/11/26 09:30:04;;;;;;;12.02;6.78;;;6.60;99.90;;;;;;5042270;28;20109;-39
2022/11/26 09:32:29;;;;;;;13.10;6.70;;;6.60;99.90;;;;;;5042452;28;20047;-38
2022/11/26 09:34:55;;;;;;;9.25;5.90;;;6.70;99.90;;;;;;5042151;28;20028;-38
2022/11/26 09:37:21;;;;;;;12.02;6.65;;;6.70;99.90;;;;;;5040855;28;20404;-40
2022/11/26 09:39:46;;;;;;;14.98;8.43;;;6.70;99.90;;;;;;5041780;28;20036;-40
2022/11/26 09:42:32;;;;;;;14.52;7.68;;;6.80;99.90;;;;;;5041813;28;20467;-40
2022/11/26 09:45:09;;;;;;;12.50;6.70;;;6.80;99.90;;;;;;5031955;28;20041;-38
2022/11/26 09:47:41;;;;;;;12.65;6.88;;;6.90;99.90;;;;;;5041227;28;20029;-41
2022/11/26 09:50:17;;;;;;;13.10;7.15;;;6.90;99.90;;;;;;5040913;28;20027;-37
2022/11/26 09:52:54;;;;;;;13.00;6.82;;;7.00;99.90;;;;;;5041909;28;20021;-40
2022/11/26 09:55:27;;;;;;;13.55;7.72;;;7.10;99.90;;;;;;5031913;28;20044;-41
2022/11/26 09:58:04;;;;;;;13.70;7.05;;;7.10;99.90;;;;;;5041062;28;20395;-39
2022/11/26 10:00:33;;;;;;;15.60;7.22;;;7.20;99.90;;;;;;5032205;28;20037;-41
2022/11/26 10:02:59;;;;;;;9.85;6.95;;;7.20;99.90;;;;;;5041096;28;20100;-40
2022/11/26 10:06:00;;;;;;;10.85;6.78;;;7.30;99.90;;;;;;5041895;28;20843;-41
2022/11/26 10:08:53;;;;;;;12.07;6.28;;;7.30;99.90;;;;;;5033026;28;20029;-41
2022/11/26 10:11:24;;;;;;;9.43;5.90;;;7.40;99.90;;;;;;5039548;28;20039;-43
2022/11/26 10:13:56;;;;;;;11.98;6.85;;;7.40;99.90;;;;;;5041313;28;20053;-39
2022/11/26 10:16:41;;;;;;;12.88;7.50;;;7.50;99.90;;;;;;5040843;28;20037;-41
2022/11/26 10:19:09;;;;;;;12.57;7.20;;;7.50;99.90;;;;;;5040508;28;20123;-40
2022/11/26 10:21:49;;;;;;;15.38;7.20;;;7.60;99.90;;;;;;5040505;28;20132;-41
2022/11/26 10:24:28;;;;;;;16.38;6.43;;;7.60;99.90;;;;;;5040812;28;20037;-40
2022/11/26 10:26:54;;;;;;;15.60;6.90;;;7.70;99.90;;;;;;5041519;28;20115;-40
2022/11/26 10:29:40;;;;;;;16.08;6.88;;;7.70;99.90;;;;;;5040451;28;20348;-40
2022/11/26 10:32:20;;;;;;;12.40;6.95;;;7.80;99.90;;;;;;5040684;28;20047;-41
2022/11/26 10:34:54;;;;;;;13.40;6.18;;;7.80;99.90;;;;;;5040912;28;20025;-41
2022/11/26 10:37:22;;;;;;;10.48;6.18;;;7.90;99.90;;;;;;5041433;28;20041;-41
2022/11/26 10:39:48;;;;;;;16.33;8.60;;;7.90;99.90;;;;;;5040202;28;20099;-41
2022/11/26 10:42:21;;;;;;;8.40;6.28;;;7.90;99.90;;;;;;5040937;28;20029;-38
2022/11/26 10:44:49;;;;;;;15.52;8.05;;;8.00;99.90;;;;;;5040500;28;20029;-41
2022/11/26 10:47:26;;;;;;;13.50;7.07;;;8.00;99.90;;;;;;5041027;28;20025;-42
2022/11/26 10:50:02;;;;;;;11.82;6.53;;;8.10;99.90;;;;;;5040381;28;20030;-41
2022/11/26 10:52:31;;;;;;;10.90;5.20;;;8.10;99.90;;;;;;5039974;28;20025;-41
2022/11/26 10:55:21;;;;;;;12.40;6.13;;;8.10;99.90;;;;;;5040371;28;20025;-41
2022/11/26 10:57:51;;;;;;;12.60;6.05;;;8.20;99.90;;;;;;5040799;28;20052;-41
2022/11/26 11:00:38;;;;;;;14.48;6.82;;;8.20;99.90;;;;;;5040733;28;20171;-41
2022/11/26 11:03:14;;;;;;;13.73;6.68;;;8.20;99.90;;;;;;5041940;28;20040;-41
2022/11/26 11:05:42;;;;;;;13.13;6.15;;;8.30;99.90;;;;;;5040514;28;20493;-41
2022/11/26 11:08:13;;;;;;;13.95;6.00;;;8.30;99.90;;;;;;5040483;28;20029;-40
2022/11/26 11:10:52;;;;;;;12.05;5.90;;;8.40;99.90;;;;;;5040150;28;20033;-41
2022/11/26 11:13:18;;;;;;;11.57;5.28;;;8.40;99.90;;;;;;5040786;28;20029;-41
2022/11/26 11:15:44;;;;;;;12.77;5.70;;;8.40;99.90;;;;;;5040730;28;20071;-41
2022/11/26 11:18:20;;;;;;;12.57;5.70;;;8.40;99.90;;;;;;5041331;28;20373;-41
2022/11/26 11:20:57;;;;;;;17.33;6.75;;;8.40;99.90;;;;;;5040758;28;20025;-38
2022/11/26 11:23:29;;;;;;;12.88;5.47;;;8.40;99.90;;;;;;5044806;28;20047;-40
2022/11/26 11:26:02;;;;;;;17.58;7.35;;;8.50;99.90;;;;;;5044378;28;20037;-39
2022/11/26 11:28:31;;;;;;;13.30;5.97;;;8.50;99.90;;;;;;5044317;28;20123;-39
2022/11/26 11:31:05;;;;;;;13.70;5.93;;;8.50;99.90;;;;;;5043843;28;20037;-41
2022/11/26 11:33:30;;;;;;;11.68;6.30;;;8.60;99.90;;;;;;5033894;28;20128;-41
2022/11/26 11:35:57;;;;;;;14.05;5.70;;;8.60;99.90;;;;;;5043126;28;20083;-38
2022/11/26 11:38:24;;;;;;;12.55;5.57;;;8.60;99.90;;;;;;5044308;28;20036;-42
2022/11/26 11:40:51;;;;;;;13.80;5.68;;;8.60;99.90;;;;;;5043273;28;20578;-40
2022/11/26 11:43:19;;;;;;;11.27;5.63;;;8.70;99.90;;;;;;5043850;28;20453;-39
2022/11/26 11:46:26;;;;;;;13.80;5.55;;;8.80;99.90;;;;;;5043749;28;20044;-41
2022/11/26 11:49:12;;;;;;;15.00;7.55;;;8.80;99.90;;;;;;5036881;28;20033;-41
2022/11/26 11:51:54;;;;;;;14.82;6.55;;;8.90;99.90;;;;;;5043628;28;20039;-40
2022/11/26 11:54:26;;;;;;;11.00;6.53;;;9.00;99.90;;;;;;5034757;28;20033;-41
2022/11/26 11:57:38;;;;;;;11.68;6.57;;;9.10;99.90;;;;;;5042416;28;20114;-40
2022/11/26 12:00:17;;;;;;;14.23;6.00;;;9.10;99.90;;;;;;5044316;28;20086;-39
2022/11/26 12:03:16;;;;;;;10.15;5.28;;;9.20;99.90;;;;;;5043143;28;20079;-41
2022/11/26 12:05:57;;;;;;;7.95;4.82;;;9.30;99.90;;;;;;5043587;28;20044;-42
2022/11/26 12:08:36;;;;;;;7.18;4.18;;;9.30;99.90;;;;;;5043843;28;20029;-40
2022/11/26 12:11:30;;;;;;;11.15;5.28;;;9.40;99.90;;;;;;5022993;28;20033;-40
2022/11/26 12:14:41;;;;;;;14.43;5.03;;;9.50;99.90;;;;;;5040911;28;20029;-41
2022/11/26 12:17:18;;;;;;;9.45;4.78;;;9.50;99.90;;;;;;5020142;28;20532;-40
2022/11/26 12:19:47;;;;;;;12.02;5.22;;;9.40;99.90;;;;;;5040290;28;20040;-41
2022/11/26 12:22:25;;;;;;;15.80;5.90;;;9.40;99.90;;;;;;5043290;28;20036;-39
2022/11/26 12:25:17;;;;;;;10.85;4.63;;;9.50;99.90;;;;;;5040127;28;20033;-40
2022/11/26 12:27:49;;;;;;;9.63;4.75;;;9.50;99.90;;;;;;5043532;28;20427;-41
2022/11/26 12:30:19;;;;;;;8.45;4.55;;;9.50;99.90;;;;;;5043258;28;20035;-41
2022/11/26 12:32:47;;;;;;;8.55;4.18;;;9.50;99.90;;;;;;5042444;28;20033;-39
2022/11/26 12:35:34;;;;;;;9.93;4.45;;;9.50;99.90;;;;;;5043203;28;20059;-41
2022/11/26 12:38:06;;;;;;;9.85;4.20;;;9.60;99.90;;;;;;5041884;28;20926;-41
2022/11/26 12:40:48;;;;;;;10.10;4.50;;;9.60;99.90;;;;;;5043755;28;20037;-41
2022/11/26 12:43:47;;;;;;;10.52;4.60;;;9.60;99.90;;;;;;5043106;28;20019;-41
2022/11/26 12:46:40;;;;;;;12.98;4.50;;;9.70;99.90;;;;;;5034389;28;20048;-40
2022/11/26 12:49:14;;;;;;;13.27;4.88;;;9.80;99.90;;;;;;5042790;28;20087;-38
2022/11/26 12:51:52;;;;;;;9.38;3.35;;;9.90;99.90;;;;;;5042383;28;20079;-43
2022/11/26 12:54:35;;;;;;;12.55;4.50;;;9.90;99.90;;;;;;5042438;28;20033;-41
2022/11/26 12:57:22;;;;;;;13.00;5.32;;;10.00;99.90;;;;;;5043497;28;20029;-43
2022/11/26 13:00:09;;;;;;;10.00;4.38;;;10.10;99.90;;;;;;5041848;28;20044;-41
2022/11/26 13:02:36;;;;;;;11.43;4.53;;;10.10;99.90;;;;;;5042456;28;20029;-41
2022/11/26 13:05:03;;;;;;;12.48;5.22;;;10.20;99.90;;;;;;5041890;28;20049;-40
2022/11/26 13:07:47;;;;;;;8.40;4.10;;;10.30;99.90;;;;;;5042049;28;20024;-40